Vremea acum in Craiova - Romania

Vrei sa afli care e starea vremii acum in Dolj - Romania? Dorim sa iti furnizam starea vremii pentru Dolj - Romania. Starea vremii Dolj - Romania pentru astazi.

Vremea acum in Craiova

Temperatura: 22 °C

Se simte ca: 24.6 °C
Innorat: 75 %
Precipitatii: 23 %
Presiune atmosferica: 1015 hPa
Umiditate: 65%
Vizibilitate: 10 km
Vantul bate din E cu 15.1 km/h

Evolutia vremii in Craiova pe ore

Ora: 21:00
Ploi pe porţiuni în apropiere
Temperatura: 24.3°C
Sansa de precipitatii: 23%
Ora Descriere Temp Se simte Precipitatii Umiditate Vant
00:00Ploi pe porţiuni în apropiere21.3°21.3°81%78%SW 12.2 KM/H
01:00Ploi pe porţiuni în apropiere20.5°20.5°82%82%ESE 13 KM/H
02:00Ploi pe porţiuni în apropiere19.8°19.8°82%85%NNE 14 KM/H
03:00Parțial noros19.6°19.6°55%86%NNE 12.2 KM/H
04:00Ploi pe porţiuni în apropiere19.3°19.3°27%88%NNE 10.4 KM/H
05:00Parțial noros19.1°19.1°0%89%NNE 8.6 KM/H
06:00Parțial noros20.2°20.2°0%82%SE 8.3 KM/H
07:00Parțial noros21.4°21.4°0%74%WSW 7.9 KM/H
08:00Parțial noros22.5°24.8°0%67%N 7.6 KM/H
09:00Parțial noros24.2°26°0%62%NNW 5.8 KM/H
10:00Parțial noros25.9°27.3°0%57%NNW 3.6 KM/H
11:00Parțial noros27.6°28.5°0%53%NW 1.8 KM/H
12:00Parțial noros28.5°28.8°0%46%NW 4.3 KM/H
13:00Parțial noros29.4°29.2°0%39%NW 7.2 KM/H
14:00Parțial noros30.3°29.5°0%33%NW 9.7 KM/H
15:00Parțial noros30°29.4°0%35%WNW 8.3 KM/H
16:00Parțial noros29.6°29.4°0%38%W 7.2 KM/H
17:00Parțial noros29.3°29.3°0%40%W 5.8 KM/H
18:00Parțial noros27.9°28.2°0%44%W 6.1 KM/H
19:00Parțial noros26.5°27.1°0%48%W 6.1 KM/H
20:00Parțial noros25.1°26°0%51%WNW 6.5 KM/H
21:00Ploi pe porţiuni în apropiere24.3°25.6°23%55%SSW 10.8 KM/H
22:00Parțial noros23.4°25.2°47%59%SE 15.1 KM/H
23:00Ploi pe porţiuni în apropiere22.6°24.8°70%63%NE 19.4 KM/H